Time;durP1;ratioP1;P1;durP2;ratioP2;P2;SDS_P1;SDS_P2;PMS_P1;PMS_P2;Temp;Humidity;BMP_temperature;BMP_pressure;BME280_temperature;BME280_humidity;BME280_pressure;Samples;Min_cycle;Max_cycle;Signal;HPM_P1;HPM_P2
2023/06/13 00:00:46;;;;;;;;;;;;;;;18.87;51.97;101290.75;5028569;28;3198;-74
2023/06/13 00:03:13;;;;;;;;;;;;;;;18.86;51.94;101289.94;4999366;28;3234;-74
2023/06/13 00:05:40;;;;;;;;;;;;;;;18.87;52.16;101283.38;5021087;28;3111;-74
2023/06/13 00:08:07;;;;;;;;;;;;;;;18.86;52.20;101292.66;5020896;28;3322;-74
2023/06/13 00:10:34;;;;;;;;;;;;;;;18.84;52.00;101284.72;5021133;28;2967;-74
2023/06/13 00:13:01;;;;;;;;;;;;;;;18.84;52.13;101281.16;5025243;28;3106;-74
2023/06/13 00:15:31;;;;;;;;;;;;;;;18.82;51.96;101281.44;5027463;28;3203;-74
2023/06/13 00:17:57;;;;;;;;;;;;;;;18.82;52.16;101284.19;5030364;28;2824;-74
2023/06/13 00:20:24;;;;;;;;;;;;;;;18.81;52.19;101276.22;5024117;28;3193;-75
2023/06/13 00:22:52;;;;;;;;;;;;;;;18.81;52.10;101281.69;5021660;28;3136;-74
2023/06/13 00:25:18;;;;;;;;;;;;;;;18.80;52.29;101280.06;5022698;28;2985;-75
2023/06/13 00:27:45;;;;;;;;;;;;;;;18.78;52.19;101283.03;5011803;28;3020;-76
2023/06/13 00:30:11;;;;;;;;;;;;;;;18.79;51.97;101283.84;5025059;28;2890;-75
2023/06/13 00:32:38;;;;;;;;;;;;;;;18.78;52.20;101284.94;5016906;28;3275;-74
2023/06/13 00:35:04;;;;;;;;;;;;;;;18.77;52.19;101278.66;5022493;28;3329;-74
2023/06/13 00:37:34;;;;;;;;;;;;;;;18.76;52.14;101274.25;5021033;28;3283;-74
2023/06/13 00:40:00;;;;;;;;;;;;;;;18.74;52.23;101273.72;5023751;28;2983;-75
2023/06/13 00:42:27;;;;;;;;;;;;;;;18.75;51.89;101280.00;5019065;28;3162;-75
2023/06/13 00:44:54;;;;;;;;;;;;;;;18.73;52.12;101280.22;5013149;28;3252;-73
2023/06/13 00:47:20;;;;;;;;;;;;;;;18.73;51.79;101279.38;5025942;28;3016;-73
2023/06/13 00:49:47;;;;;;;;;;;;;;;18.72;52.10;101278.56;5021836;28;3165;-76
2023/06/13 00:52:14;;;;;;;;;;;;;;;18.72;52.03;101280.47;5022161;28;3141;-73
2023/06/13 00:54:40;;;;;;;;;;;;;;;18.72;52.20;101283.19;5023926;28;3110;-74
2023/06/13 00:57:07;;;;;;;;;;;;;;;18.70;51.80;101288.06;5022945;28;2961;-76
2023/06/13 00:59:33;;;;;;;;;;;;;;;18.68;51.89;101293.81;5028019;28;3516;-74
2023/06/13 01:02:00;;;;;;;;;;;;;;;18.68;52.09;101292.97;5011038;28;3173;-75
2023/06/13 01:04:27;;;;;;;;;;;;;;;18.67;51.92;101299.50;5021073;28;3108;-74
2023/06/13 01:06:53;;;;;;;;;;;;;;;18.66;51.73;101293.22;5007021;28;3037;-75
2023/06/13 01:09:21;;;;;;;;;;;;;;;18.66;51.75;101292.41;5026446;28;3258;-75
2023/06/13 01:11:48;;;;;;;;;;;;;;;18.65;51.83;101279.81;5025172;28;3298;-77
2023/06/13 01:14:15;;;;;;;;;;;;;;;18.64;51.91;101295.38;5036771;28;3246;-74
2023/06/13 01:16:41;;;;;;;;;;;;;;;18.64;51.67;101289.09;5028186;28;3377;-74
2023/06/13 01:19:08;;;;;;;;;;;;;;;18.64;51.86;101294.56;5023180;28;3118;-74
2023/06/13 01:21:35;;;;;;;;;;;;;;;18.61;51.57;101296.72;5024511;28;3405;-74
2023/06/13 01:24:02;;;;;;;;;;;;;;;18.61;51.92;101290.44;5021937;28;3224;-74
2023/06/13 01:26:33;;;;;;;;;;;;;;;18.60;51.86;101292.34;5028148;28;3206;-74
2023/06/13 01:29:00;;;;;;;;;;;;;;;18.58;52.00;101289.03;5026198;28;3111;-74
2023/06/13 01:31:26;;;;;;;;;;;;;;;18.58;51.73;101289.03;5029178;28;3393;-74
2023/06/13 01:33:53;;;;;;;;;;;;;;;18.58;51.79;101290.94;5025003;28;3176;-74
2023/06/13 01:36:19;;;;;;;;;;;;;;;18.56;51.83;101295.81;5003106;28;3451;-75
2023/06/13 01:38:46;;;;;;;;;;;;;;;18.56;51.97;101287.63;5027986;28;3331;-75
2023/06/13 01:41:12;;;;;;;;;;;;;;;18.54;51.77;101296.09;5008464;28;3283;-74
2023/06/13 01:43:39;;;;;;;;;;;;;;;18.53;51.69;101291.72;5029613;28;3157;-75
2023/06/13 01:46:05;;;;;;;;;;;;;;;18.53;51.92;101291.72;5009863;28;3114;-74
2023/06/13 01:48:32;;;;;;;;;;;;;;;18.52;51.53;101295.50;5029091;28;3458;-75
2023/06/13 01:50:58;;;;;;;;;;;;;;;18.53;51.92;101293.59;5003724;28;3208;-74
2023/06/13 01:53:25;;;;;;;;;;;;;;;18.52;51.76;101294.69;5008671;28;3181;-76
2023/06/13 01:55:52;;;;;;;;;;;;;;;18.50;51.77;101289.50;5007624;28;3287;-75
2023/06/13 01:58:18;;;;;;;;;;;;;;;18.49;51.63;101287.03;5015896;28;3276;-75
2023/06/13 02:00:45;;;;;;;;;;;;;;;18.49;51.79;101278.84;5035407;28;3294;-74
2023/06/13 02:03:11;;;;;;;;;;;;;;;18.48;51.62;101282.66;5025538;28;3224;-74
2023/06/13 02:05:38;;;;;;;;;;;;;;;18.47;51.62;101289.16;5021897;28;2989;-75
2023/06/13 02:08:05;;;;;;;;;;;;;;;18.46;51.64;101293.81;5007939;28;3369;-74
2023/06/13 02:10:31;;;;;;;;;;;;;;;18.46;51.60;101291.09;5006597;28;3134;-75
2023/06/13 02:12:58;;;;;;;;;;;;;;;18.44;51.63;101286.97;5025910;28;3217;-74
2023/06/13 02:15:24;;;;;;;;;;;;;;;18.43;51.62;101294.31;5026260;28;3419;-74
2023/06/13 02:17:51;;;;;;;;;;;;;;;18.43;51.36;101293.50;5005324;28;3387;-75
2023/06/13 02:20:17;;;;;;;;;;;;;;;18.42;51.53;101292.69;5027423;28;3079;-75
2023/06/13 02:22:44;;;;;;;;;;;;;;;18.39;51.28;101294.00;5026624;28;3145;-74
2023/06/13 02:25:11;;;;;;;;;;;;;;;18.40;51.35;101297.56;5024766;28;3857;-75
2023/06/13 02:27:39;;;;;;;;;;;;;;;18.40;51.41;101297.56;5029915;28;3282;-76
2023/06/13 02:30:08;;;;;;;;;;;;;;;18.39;51.60;101298.66;5026855;28;3278;-72
2023/06/13 02:32:36;;;;;;;;;;;;;;;18.37;51.56;101296.16;5033151;28;3331;-75
2023/06/13 02:35:03;;;;;;;;;;;;;;;18.36;51.54;101296.41;5010445;28;3185;-73
2023/06/13 02:37:29;;;;;;;;;;;;;;;18.36;51.28;101296.41;5012783;28;3122;-74
2023/06/13 02:39:56;;;;;;;;;;;;;;;18.34;51.50;101299.38;5023135;28;3293;-74
2023/06/13 02:42:22;;;;;;;;;;;;;;;18.33;51.36;101297.75;5037405;28;2809;-74
2023/06/13 02:44:49;;;;;;;;;;;;;;;18.34;51.51;101295.84;5047091;28;2109;-74
2023/06/13 02:47:16;;;;;;;;;;;;;;;18.33;51.28;101294.22;5053048;28;3358;-74
2023/06/13 02:49:42;;;;;;;;;;;;;;;18.32;51.30;101296.13;5030226;28;3033;-73
2023/06/13 02:52:09;;;;;;;;;;;;;;;18.31;51.22;101296.34;5026480;28;2974;-74
2023/06/13 02:54:35;;;;;;;;;;;;;;;18.31;51.50;101293.63;5037840;28;3347;-75
2023/06/13 02:57:02;;;;;;;;;;;;;;;18.30;51.49;101294.72;5049500;28;3608;-74
2023/06/13 02:59:28;;;;;;;;;;;;;;;18.28;51.47;101291.41;5052115;28;2741;-73
2023/06/13 03:01:55;;;;;;;;;;;;;;;18.28;51.26;101294.13;5026714;28;2966;-74
2023/06/13 03:04:22;;;;;;;;;;;;;;;18.28;51.16;101294.94;5048985;28;2199;-74
2023/06/13 03:06:50;;;;;;;;;;;;;;;18.26;51.44;101294.38;5055739;28;3093;-73
2023/06/13 03:09:16;;;;;;;;;;;;;;;18.27;51.21;101300.69;5049169;28;2801;-74
2023/06/13 03:11:42;;;;;;;;;;;;;;;18.25;51.21;101300.91;5023839;28;3095;-73
2023/06/13 03:14:09;;;;;;;;;;;;;;;18.24;51.12;101307.44;5022979;28;3321;-74
2023/06/13 03:16:36;;;;;;;;;;;;;;;18.23;51.20;101303.06;5020771;28;2891;-75
2023/06/13 03:19:03;;;;;;;;;;;;;;;18.24;51.31;101312.09;5028616;28;3378;-74
2023/06/13 03:21:30;;;;;;;;;;;;;;;18.23;51.05;101300.31;5029090;28;2933;-74
2023/06/13 03:23:56;;;;;;;;;;;;;;;18.22;51.14;101301.41;5025091;28;2981;-74
2023/06/13 03:26:23;;;;;;;;;;;;;;;18.22;51.22;101303.31;5007131;28;3243;-74
2023/06/13 03:28:49;;;;;;;;;;;;;;;18.21;51.07;101302.50;5026199;28;3241;-75
2023/06/13 03:31:16;;;;;;;;;;;;;;;18.18;50.99;101300.28;5026987;28;3267;-74
2023/06/13 03:33:42;;;;;;;;;;;;;;;18.20;51.30;101308.19;5011554;28;3205;-73
2023/06/13 03:36:09;;;;;;;;;;;;;;;18.17;51.12;101306.78;5009886;28;3039;-75
2023/06/13 03:38:36;;;;;;;;;;;;;;;18.17;51.05;101307.63;5016396;28;3116;-76
2023/06/13 03:41:02;;;;;;;;;;;;;;;18.16;51.30;101307.88;5021699;28;3159;-73
2023/06/13 03:43:29;;;;;;;;;;;;;;;18.15;51.08;101301.63;5022402;28;3049;-75
2023/06/13 03:45:56;;;;;;;;;;;;;;;18.14;51.08;101299.94;5022331;28;3148;-75
2023/06/13 03:48:22;;;;;;;;;;;;;;;18.15;51.05;101308.97;5023857;28;3140;-75
2023/06/13 03:50:49;;;;;;;;;;;;;;;18.14;51.19;101308.13;5027155;28;3211;-74
2023/06/13 03:53:15;;;;;;;;;;;;;;;18.13;51.15;101314.66;5022926;28;3154;-74
2023/06/13 03:55:44;;;;;;;;;;;;;;;18.12;50.97;101310.28;5021310;28;3110;-75
2023/06/13 03:58:12;;;;;;;;;;;;;;;18.12;51.16;101312.19;5011161;28;2822;-74
2023/06/13 04:00:39;;;;;;;;;;;;;;;18.11;51.07;101313.25;5021147;28;3195;-74
2023/06/13 04:03:08;;;;;;;;;;;;;;;18.11;51.00;101307.81;5032080;28;3145;-75
2023/06/13 04:05:34;;;;;;;;;;;;;;;18.10;50.97;101308.91;5032172;28;3094;-75
2023/06/13 04:08:02;;;;;;;;;;;;;;;18.09;51.14;101309.97;5022193;28;3055;-75
2023/06/13 04:10:28;;;;;;;;;;;;;;;18.09;50.96;101318.97;5022839;28;3083;-75
2023/06/13 04:13:15;;;;;;;;;;;;;;;18.08;51.12;101311.03;5022025;28;3218;-75
2023/06/13 04:16:01;;;;;;;;;;;;;;;18.08;50.90;101305.59;5023776;28;3170;-74
2023/06/13 04:18:48;;;;;;;;;;;;;;;18.07;50.88;101303.94;5021712;28;3031;-74
2023/06/13 04:21:35;;;;;;;;;;;;;;;18.06;51.15;101316.75;5024052;28;3471;-74
2023/06/13 04:24:22;;;;;;;;;;;;;;;18.05;50.84;101312.34;5017754;28;3177;-74
2023/06/13 04:27:08;;;;;;;;;;;;;;;18.05;50.87;101314.25;5016300;28;3252;-74
2023/06/13 04:30:00;;;;;;;;;;;;;;;18.04;51.08;101308.00;5014892;28;3391;-74
2023/06/13 04:32:52;;;;;;;;;;;;;;;18.04;50.77;101305.28;5016667;28;3274;-73
2023/06/13 04:35:46;;;;;;;;;;;;;;;18.03;50.76;101303.63;5024831;28;3236;-74
2023/06/13 04:38:39;;;;;;;;;;;;;;;18.03;50.88;101316.41;5023204;28;3083;-75
2023/06/13 04:41:34;;;;;;;;;;;;;;;18.02;50.86;101304.69;5027934;28;3259;-76
2023/06/13 04:44:27;;;;;;;;;;;;;;;18.02;51.01;101312.03;5025159;28;3359;-74
2023/06/13 04:47:18;;;;;;;;;;;;;;;18.01;50.88;101313.13;5027444;28;3086;-74
2023/06/13 04:50:10;;;;;;;;;;;;;;;18.01;50.73;101302.22;5034284;28;3083;-74
2023/06/13 04:53:05;;;;;;;;;;;;;;;17.99;50.88;101302.47;5042166;28;3234;-74
2023/06/13 04:55:57;;;;;;;;;;;;;;;17.99;50.71;101309.81;5028583;28;3155;-75
2023/06/13 04:58:48;;;;;;;;;;;;;;;17.99;50.83;101315.28;5033136;28;3155;-74
2023/06/13 05:01:39;;;;;;;;;;;;;;;17.98;50.72;101311.72;5025313;28;2816;-74
2023/06/13 05:04:31;;;;;;;;;;;;;;;17.98;50.69;101319.09;5035378;28;3098;-74
2023/06/13 05:07:24;;;;;;;;;;;;;;;17.98;50.76;101324.53;5042302;28;3462;-75
2023/06/13 05:10:16;;;;;;;;;;;;;;;17.98;50.92;101319.09;5044956;28;3211;-74
2023/06/13 05:13:03;;;;;;;;;;;;;;;17.97;50.90;101314.69;5043468;28;3088;-73
2023/06/13 05:15:51;;;;;;;;;;;;;;;17.96;50.65;101327.50;5042095;28;3253;-74
2023/06/13 05:18:29;;;;;;;;;;;;;;;17.96;50.67;101322.03;5025762;28;3335;-73
2023/06/13 05:21:16;;;;;;;;;;;;;;;17.96;50.53;101330.22;5039574;28;3485;-73
2023/06/13 05:24:03;;;;;;;;;;;;;;;17.95;50.93;101331.31;5040919;28;3447;-73
2023/06/13 05:26:30;;;;;;;;;;;;;;;17.95;50.93;101325.84;5040840;28;3183;-73
2023/06/13 05:28:56;;;;;;;;;;;;;;;17.95;50.75;101328.56;5035203;28;3171;-74
2023/06/13 05:31:23;;;;;;;;;;;;;;;17.95;50.89;101327.75;5038401;28;3352;-75
2023/06/13 05:33:49;;;;;;;;;;;;;;;17.94;50.65;101329.63;5036848;28;3553;-74
2023/06/13 05:36:17;;;;;;;;;;;;;;;17.94;50.82;101318.72;5039656;28;4108;-75
2023/06/13 05:38:44;;;;;;;;;;;;;;;17.93;50.76;101328.81;5037593;28;3396;-75
2023/06/13 05:41:10;;;;;;;;;;;;;;;17.93;50.73;101331.53;5040875;28;3353;-74
2023/06/13 05:43:37;;;;;;;;;;;;;;;17.93;50.91;101325.28;5039263;28;3404;-75
2023/06/13 05:46:03;;;;;;;;;;;;;;;17.92;50.95;101332.63;5040881;28;3453;-74
2023/06/13 05:48:30;;;;;;;;;;;;;;;17.93;50.80;101333.44;5008066;28;3486;-72
2023/06/13 05:50:56;;;;;;;;;;;;;;;17.92;50.77;101329.91;5029500;28;3296;-73
2023/06/13 05:53:23;;;;;;;;;;;;;;;17.91;50.82;101328.25;5016604;28;3419;-76
2023/06/13 05:55:49;;;;;;;;;;;;;;;17.92;50.88;101337.25;5021388;28;3589;-74
2023/06/13 05:58:16;;;;;;;;;;;;;;;17.92;50.59;101342.69;5019057;28;3428;-73
2023/06/13 06:00:42;;;;;;;;;;;;;;;17.91;50.82;101339.16;5027083;28;3313;-75
2023/06/13 06:03:09;;;;;;;;;;;;;;;17.91;50.87;101339.16;5036081;28;3726;-76
2023/06/13 06:05:36;;;;;;;;;;;;;;;17.90;50.73;101332.03;5039655;28;3420;-74
2023/06/13 06:08:02;;;;;;;;;;;;;;;17.90;50.70;101326.59;5037172;28;3959;-73
2023/06/13 06:10:29;;;;;;;;;;;;;;;17.91;50.74;101338.31;5037868;28;3332;-73
2023/06/13 06:12:55;;;;;;;;;;;;;;;17.91;50.69;101330.97;5038232;28;3361;-73
2023/06/13 06:15:22;;;;;;;;;;;;;;;17.90;50.40;101328.50;5038641;28;3455;-75
2023/06/13 06:17:50;;;;;;;;;;;;;;;17.89;50.80;101322.22;5037406;28;3356;-74
2023/06/13 06:20:17;;;;;;;;;;;;;;;17.90;50.63;101332.03;5037927;28;3394;-76
2023/06/13 06:22:43;;;;;;;;;;;;;;;17.90;50.51;101331.22;5037755;28;3377;-74
2023/06/13 06:25:12;;;;;;;;;;;;;;;17.90;50.49;101329.31;5038103;28;3579;-73
2023/06/13 06:27:39;;;;;;;;;;;;;;;17.89;50.57;101327.66;5037176;28;3679;-75
2023/06/13 06:30:05;;;;;;;;;;;;;;;17.89;50.71;101337.75;5037217;28;3286;-74
2023/06/13 06:32:32;;;;;;;;;;;;;;;17.90;50.53;101333.94;5037658;28;3366;-73
2023/06/13 06:34:59;;;;;;;;;;;;;;;17.89;50.71;101335.84;5037273;28;3820;-74
2023/06/13 06:37:25;;;;;;;;;;;;;;;17.90;50.60;101342.94;5030504;28;3578;-73
2023/06/13 06:39:52;;;;;;;;;;;;;;;17.90;50.53;101342.13;4996080;28;3510;-74
2023/06/13 06:42:18;;;;;;;;;;;;;;;17.89;50.81;101341.28;5017793;28;3430;-76
2023/06/13 06:44:45;;;;;;;;;;;;;;;17.89;50.72;101335.03;5027109;28;3727;-74
2023/06/13 06:47:12;;;;;;;;;;;;;;;17.89;50.82;101335.84;5021990;28;3624;-74
2023/06/13 06:49:38;;;;;;;;;;;;;;;17.89;50.66;101333.13;5037520;28;3708;-73
2023/06/13 06:52:05;;;;;;;;;;;;;;;17.88;50.54;101334.22;5035039;28;3782;-76
2023/06/13 06:54:31;;;;;;;;;;;;;;;17.89;50.76;101344.03;5033899;28;3687;-74
2023/06/13 06:56:58;;;;;;;;;;;;;;;17.89;50.55;101343.19;5037833;28;3778;-72
2023/06/13 06:59:24;;;;;;;;;;;;;;;17.89;50.74;101335.03;5018539;28;3710;-73
2023/06/13 07:01:51;;;;;;;;;;;;;;;17.90;50.54;101342.94;5024588;28;3591;-75
2023/06/13 07:04:18;;;;;;;;;;;;;;;17.91;50.59;101341.88;5034998;28;3607;-75
2023/06/13 07:06:44;;;;;;;;;;;;;;;17.90;50.80;101339.38;5038311;28;3539;-73
2023/06/13 07:09:11;;;;;;;;;;;;;;;17.91;50.52;101346.47;5034640;28;3570;-75
2023/06/13 07:11:37;;;;;;;;;;;;;;;17.91;50.47;101341.88;5035677;28;3503;-74
2023/06/13 07:14:04;;;;;;;;;;;;;;;17.91;50.69;101333.72;5021611;28;4162;-76
2023/06/13 07:16:30;;;;;;;;;;;;;;;17.92;50.66;101343.53;5034145;28;3679;-73
2023/06/13 07:18:57;;;;;;;;;;;;;;;17.93;50.51;101336.16;5038622;28;3538;-75
2023/06/13 07:21:23;;;;;;;;;;;;;;;17.95;50.44;101341.38;5035786;28;3463;-74
2023/06/13 07:23:50;;;;;;;;;;;;;;;17.93;50.53;101337.00;5036899;28;3688;-73
2023/06/13 07:26:16;;;;;;;;;;;;;;;17.93;50.65;101330.72;5035621;28;3534;-74
2023/06/13 07:28:43;;;;;;;;;;;;;;;17.94;50.41;101337.81;5024040;28;3805;-74
2023/06/13 07:31:10;;;;;;;;;;;;;;;17.93;50.58;101334.25;5022012;28;3639;-74
2023/06/13 07:33:36;;;;;;;;;;;;;;;17.94;50.58;101335.09;5036401;28;3523;-75
2023/06/13 07:36:03;;;;;;;;;;;;;;;17.95;50.37;101341.38;5037042;28;3487;-74
2023/06/13 07:38:29;;;;;;;;;;;;;;;17.93;50.46;101369.69;5023653;28;3481;-75
2023/06/13 07:40:56;;;;;;;;;;;;;;;17.94;50.68;101343.25;5035432;28;3566;-75
2023/06/13 07:43:22;;;;;;;;;;;;;;;17.95;50.67;101350.38;5038257;28;3365;-74
2023/06/13 07:45:49;;;;;;;;;;;;;;;17.94;50.51;101348.72;5020392;28;3513;-75
2023/06/13 07:48:16;;;;;;;;;;;;;;;17.95;50.43;101341.38;5037927;28;3676;-75
2023/06/13 07:50:42;;;;;;;;;;;;;;;17.93;50.63;101337.00;5036623;28;3583;-74
2023/06/13 07:53:09;;;;;;;;;;;;;;;17.95;50.46;101341.38;5023392;28;3572;-75
2023/06/13 07:55:36;;;;;;;;;;;;;;;17.94;50.41;101340.53;5031350;28;3500;-75
2023/06/13 07:58:03;;;;;;;;;;;;;;;17.94;50.70;101332.34;5021108;28;3302;-75
2023/06/13 08:00:29;;;;;;;;;;;;;;;17.93;50.41;101337.00;5001177;28;3889;-75
2023/06/13 08:02:57;;;;;;;;;;;;;;;17.96;50.42;101338.38;5020493;28;3561;-76
2023/06/13 08:05:24;;;;;;;;;;;;;;;17.96;50.53;101337.56;5008525;28;3543;-75
2023/06/13 08:07:51;;;;;;;;;;;;;;;17.95;50.48;101335.94;5025657;28;3793;-75
2023/06/13 08:10:17;;;;;;;;;;;;;;;17.95;50.49;101339.47;5024505;28;3606;-75
2023/06/13 08:12:44;;;;;;;;;;;;;;;17.96;50.39;101337.56;5036897;28;3736;-76
2023/06/13 08:15:10;;;;;;;;;;;;;;;17.95;50.43;101334.03;5023146;28;3338;-74
2023/06/13 08:17:39;;;;;;;;;;;;;;;17.97;50.70;101333.75;5035172;28;3838;-74
2023/06/13 08:20:08;;;;;;;;;;;;;;;17.96;50.63;101332.94;5032441;28;3379;-75
2023/06/13 08:22:35;;;;;;;;;;;;;;;17.97;50.60;101334.63;5017723;28;3714;-75
2023/06/13 08:25:01;;;;;;;;;;;;;;;17.97;50.39;101326.44;5037009;28;3473;-74
2023/06/13 08:27:28;;;;;;;;;;;;;;;17.97;50.38;101337.34;5038164;28;3530;-75
2023/06/13 08:29:54;;;;;;;;;;;;;;;17.98;50.48;101340.88;5034814;28;3405;-74
2023/06/13 08:32:21;;;;;;;;;;;;;;;17.98;50.34;101333.53;5018577;28;3342;-75
2023/06/13 08:34:47;;;;;;;;;;;;;;;17.99;50.57;101334.34;5016798;28;3617;-74
2023/06/13 08:37:14;;;;;;;;;;;;;;;17.98;50.23;101325.34;5021465;28;3595;-75
2023/06/13 08:39:41;;;;;;;;;;;;;;;18.00;50.56;101327.81;5015391;28;3588;-75
2023/06/13 08:42:07;;;;;;;;;;;;;;;17.99;50.53;101324.25;5021376;28;3568;-74
2023/06/13 08:44:34;;;;;;;;;;;;;;;17.99;50.29;101327.00;5001490;28;3632;-73
2023/06/13 08:47:00;;;;;;;;;;;;;;;18.00;50.42;101325.94;5018136;28;3474;-74
2023/06/13 08:49:27;;;;;;;;;;;;;;;18.00;50.34;101317.75;5018570;28;3473;-73
2023/06/13 08:51:54;;;;;;;;;;;;;;;18.01;50.34;101324.03;5020977;28;3475;-74
2023/06/13 08:54:20;;;;;;;;;;;;;;;18.02;50.41;101320.22;5017409;28;3781;-75
2023/06/13 08:56:47;;;;;;;;;;;;;;;18.02;50.39;101320.22;5021032;28;3484;-74
2023/06/13 08:59:13;;;;;;;;;;;;;;;18.01;50.31;101316.66;5020020;28;3682;-74
2023/06/13 09:01:40;;;;;;;;;;;;;;;18.02;50.41;101314.75;5020626;28;3642;-74
2023/06/13 09:04:07;;;;;;;;;;;;;;;18.03;50.42;101316.41;5019201;28;3602;-74
2023/06/13 09:06:33;;;;;;;;;;;;;;;18.03;50.46;101324.59;5004932;28;3891;-74
2023/06/13 09:09:00;;;;;;;;;;;;;;;18.04;50.28;101315.34;5017953;28;3753;-73
2023/06/13 09:11:26;;;;;;;;;;;;;;;18.04;50.40;101315.34;5018302;28;3635;-74
2023/06/13 09:13:53;;;;;;;;;;;;;;;18.05;50.47;101315.09;5004726;28;3666;-75
2023/06/13 09:16:20;;;;;;;;;;;;;;;18.05;50.38;101309.63;5017752;28;3731;-73
2023/06/13 09:18:46;;;;;;;;;;;;;;;18.06;50.45;101311.31;5020969;28;3547;-74
2023/06/13 09:21:13;;;;;;;;;;;;;;;18.06;50.40;101310.44;5018456;28;3460;-73
2023/06/13 09:23:39;;;;;;;;;;;;;;;18.07;50.57;101314.84;5004753;28;3313;-74
2023/06/13 09:26:06;;;;;;;;;;;;;;;18.07;50.35;101307.50;5000586;28;3452;-74
2023/06/13 09:28:32;;;;;;;;;;;;;;;18.07;50.33;101307.50;5023861;28;3693;-73
2023/06/13 09:30:59;;;;;;;;;;;;;;;18.09;50.39;101305.34;5021556;28;3698;-74
2023/06/13 09:33:25;;;;;;;;;;;;;;;18.09;50.54;101308.06;5035090;28;3660;-73
2023/06/13 09:35:52;;;;;;;;;;;;;;;18.09;50.45;101302.63;5016532;28;3538;-74
2023/06/13 09:38:20;;;;;;;;;;;;;;;18.12;50.57;101304.03;5034410;28;3761;-78
2023/06/13 09:40:47;;;;;;;;;;;;;;;18.11;50.47;101299.63;5034430;28;3374;-74
2023/06/13 09:43:14;;;;;;;;;;;;;;;18.12;50.54;101304.03;5032525;28;3511;-76
2023/06/13 09:45:40;;;;;;;;;;;;;;;18.12;50.70;101302.13;5033081;28;3517;-74
2023/06/13 09:48:07;;;;;;;;;;;;;;;18.13;50.85;101298.31;5032957;28;3511;-73
2023/06/13 09:50:36;;;;;;;;;;;;;;;18.13;50.47;101292.03;5033715;28;3554;-74
2023/06/13 09:53:02;;;;;;;;;;;;;;;18.14;50.60;101288.22;5033239;28;3536;-75
2023/06/13 09:55:29;;;;;;;;;;;;;;;18.15;50.76;101289.88;5016719;28;3721;-75
2023/06/13 09:57:56;;;;;;;;;;;;;;;18.15;50.62;101287.97;5031814;28;3198;-74
2023/06/13 10:00:22;;;;;;;;;;;;;;;18.16;50.62;101277.91;5032586;28;3831;-75
2023/06/13 10:02:50;;;;;;;;;;;;;;;18.17;50.55;101279.53;5031899;28;3702;-75
2023/06/13 10:05:16;;;;;;;;;;;;;;;18.19;50.78;101282.03;5032034;28;3540;-74
2023/06/13 10:07:43;;;;;;;;;;;;;;;18.18;50.63;101281.19;5035323;28;3605;-76
2023/06/13 10:10:10;;;;;;;;;;;;;;;18.20;50.78;101280.94;5032929;28;3487;-76
2023/06/13 10:12:36;;;;;;;;;;;;;;;18.21;50.58;101274.44;5032874;28;3239;-74
2023/06/13 10:15:03;;;;;;;;;;;;;;;18.21;50.60;101269.78;5030058;28;3511;-76
2023/06/13 10:17:29;;;;;;;;;;;;;;;18.22;50.68;101276.88;5032618;28;3491;-74
2023/06/13 10:19:56;;;;;;;;;;;;;;;18.23;50.75;101267.63;5014750;28;3528;-75
2023/06/13 10:22:22;;;;;;;;;;;;;;;18.23;50.68;101262.16;5035316;28;3527;-74
2023/06/13 10:24:49;;;;;;;;;;;;;;;18.25;50.76;101270.09;5030819;28;3411;-74
2023/06/13 10:27:17;;;;;;;;;;;;;;;18.26;50.64;101261.66;5034572;28;3464;-73
2023/06/13 10:29:43;;;;;;;;;;;;;;;18.27;50.60;101267.97;5029741;28;3510;-73
2023/06/13 10:32:10;;;;;;;;;;;;;;;18.27;50.57;101263.31;5016987;28;3392;-72
2023/06/13 10:34:37;;;;;;;;;;;;;;;18.28;50.69;101264.16;5030622;28;3429;-75
2023/06/13 10:37:03;;;;;;;;;;;;;;;18.30;50.46;101259.28;5036664;28;3358;-74
2023/06/13 10:39:30;;;;;;;;;;;;;;;18.30;50.60;101257.38;5019941;28;3434;-75
2023/06/13 10:41:57;;;;;;;;;;;;;;;18.31;50.56;101259.00;5039474;28;3408;-74
2023/06/13 10:44:24;;;;;;;;;;;;;;;18.33;50.50;101261.47;5037560;28;3314;-75
2023/06/13 10:46:50;;;;;;;;;;;;;;;18.33;50.71;101262.31;5039115;28;3543;-74
2023/06/13 10:49:17;;;;;;;;;;;;;;;18.34;50.75;101261.22;5021891;28;3563;-75
2023/06/13 10:51:43;;;;;;;;;;;;;;;18.35;50.56;101260.16;5021241;28;3433;-73
2023/06/13 10:54:11;;;;;;;;;;;;;;;18.36;50.61;101253.63;5038168;28;3408;-73
2023/06/13 10:56:39;;;;;;;;;;;;;;;18.38;50.60;101253.34;5037698;28;3349;-75
2023/06/13 10:59:05;;;;;;;;;;;;;;;18.39;50.65;101249.56;5025536;28;3430;-74
2023/06/13 11:01:32;;;;;;;;;;;;;;;18.40;50.77;101253.91;5036413;28;3483;-75
2023/06/13 11:03:59;;;;;;;;;;;;;;;18.41;50.56;101247.38;5040276;28;3396;-75
2023/06/13 11:06:25;;;;;;;;;;;;;;;18.42;50.64;101243.59;5022684;28;3615;-75
2023/06/13 11:08:52;;;;;;;;;;;;;;;18.42;50.68;101240.88;5040578;28;3274;-74
2023/06/13 11:11:20;;;;;;;;;;;;;;;18.44;50.62;101240.59;5034760;28;3436;-74
2023/06/13 11:13:47;;;;;;;;;;;;;;;18.46;50.89;101241.16;5038659;28;3456;-76
2023/06/13 11:16:13;;;;;;;;;;;;;;;18.46;50.86;101236.53;5035497;28;3428;-75
2023/06/13 11:18:40;;;;;;;;;;;;;;;18.48;50.77;101233.56;5038424;28;3144;-74
2023/06/13 11:21:07;;;;;;;;;;;;;;;18.50;51.00;101234.97;5036771;28;3262;-74
2023/06/13 11:23:33;;;;;;;;;;;;;;;18.51;50.95;101233.88;5038562;28;3416;-76
2023/06/13 11:26:00;;;;;;;;;;;;;;;18.51;51.03;101222.16;5035855;28;3546;-74
2023/06/13 11:28:26;;;;;;;;;;;;;;;18.53;50.84;101226.25;5036681;28;3452;-75
2023/06/13 11:30:53;;;;;;;;;;;;;;;18.54;50.82;101224.34;5039124;28;3384;-75
2023/06/13 11:33:19;;;;;;;;;;;;;;;18.54;50.81;101222.44;4981773;28;1587408;-74
2023/06/13 11:35:46;;;;;;;;;;;;;;;18.56;50.98;101220.28;5037588;28;3424;-74
2023/06/13 11:38:15;;;;;;;;;;;;;;;18.58;51.04;101220.84;5021776;28;3487;-75
2023/06/13 11:40:42;;;;;;;;;;;;;;;18.58;51.05;101220.84;5024595;28;3472;-74
2023/06/13 11:43:08;;;;;;;;;;;;;;;18.60;51.03;101221.41;5036634;28;3296;-75
2023/06/13 11:45:35;;;;;;;;;;;;;;;18.62;50.73;101218.44;5038260;28;3405;-74
2023/06/13 11:48:02;;;;;;;;;;;;;;;18.63;51.14;101222.81;5037074;28;3448;-74
2023/06/13 11:50:28;;;;;;;;;;;;;;;18.63;51.05;101214.63;5037504;28;3353;-75
2023/06/13 11:52:55;;;;;;;;;;;;;;;18.66;50.92;101210.56;5036212;28;3862;-74
2023/06/13 11:55:21;;;;;;;;;;;;;;;18.67;51.07;101215.75;5039290;28;3385;-75
2023/06/13 11:57:48;;;;;;;;;;;;;;;18.68;51.03;101208.38;5037803;28;3456;-76
2023/06/13 12:00:15;;;;;;;;;;;;;;;18.70;50.95;101207.03;5036933;28;3446;-75
2023/06/13 12:02:42;;;;;;;;;;;;;;;18.71;50.90;101206.00;5038348;28;3357;-76
2023/06/13 12:05:08;;;;;;;;;;;;;;;18.73;50.94;101202.97;5037938;28;3436;-74
2023/06/13 12:07:35;;;;;;;;;;;;;;;18.75;51.19;101203.59;5018875;28;3390;-73
2023/06/13 12:10:02;;;;;;;;;;;;;;;18.75;51.21;101204.41;5036373;28;3365;-74
2023/06/13 12:12:29;;;;;;;;;;;;;;;18.77;51.29;101204.97;5037863;28;3357;-74
2023/06/13 12:14:56;;;;;;;;;;;;;;;18.78;51.46;101205.81;5037098;28;3483;-74
2023/06/13 12:17:23;;;;;;;;;;;;;;;18.79;51.19;101196.53;5037718;28;3954;-75
2023/06/13 12:19:50;;;;;;;;;;;;;;;18.81;51.04;101203.38;5022722;28;3498;-74
2023/06/13 12:22:16;;;;;;;;;;;;;;;18.82;51.51;101201.47;5035279;28;3338;-74
2023/06/13 12:24:43;;;;;;;;;;;;;;;18.83;51.09;101192.22;5022293;28;3461;-74
2023/06/13 12:27:11;;;;;;;;;;;;;;;18.85;51.36;101192.75;5037970;28;3503;-73
2023/06/13 12:29:39;;;;;;;;;;;;;;;18.86;51.40;101197.16;5035683;28;3408;-76
2023/06/13 12:32:06;;;;;;;;;;;;;;;18.88;51.27;101192.22;5033826;28;3356;-73
2023/06/13 12:34:34;;;;;;;;;;;;;;;18.89;51.32;101193.09;5001225;28;3493;-73
2023/06/13 12:37:02;;;;;;;;;;;;;;;18.90;51.19;101187.34;5003461;28;3374;-75
2023/06/13 12:39:30;;;;;;;;;;;;;;;18.92;51.41;101189.84;5018697;28;3665;-72
2023/06/13 12:41:56;;;;;;;;;;;;;;;18.94;51.53;101191.22;5020305;28;3570;-75
2023/06/13 12:44:23;;;;;;;;;;;;;;;18.94;51.32;101188.50;5007081;28;3176;-74
2023/06/13 12:46:49;;;;;;;;;;;;;;;18.96;51.45;101185.50;4999230;28;3433;-74
2023/06/13 12:49:19;;;;;;;;;;;;;;;18.97;51.28;101192.59;5020563;28;3407;-74
2023/06/13 12:51:45;;;;;;;;;;;;;;;18.98;51.52;101188.78;5018261;28;3414;-75